createdAt,value
2019-05-03T00:00:44.991Z,100.00
2019-05-03T00:08:33.237Z,100.00
2019-05-03T00:11:02.302Z,100.00
2019-05-03T00:13:32.507Z,99.82
2019-05-03T00:16:21.917Z,99.30
2019-05-03T00:18:50.229Z,99.52
2019-05-03T00:21:18.486Z,99.59
2019-05-03T00:23:46.745Z,99.48
2019-05-03T00:26:15.010Z,99.68
2019-05-03T00:28:43.271Z,100.00
2019-05-03T00:31:12.470Z,99.33
2019-05-03T00:41:49.773Z,100.00
2019-05-03T00:44:18.521Z,100.00
2019-05-03T00:46:46.789Z,100.00
2019-05-03T00:49:15.046Z,100.00
2019-05-03T00:51:43.326Z,100.00
2019-05-03T00:54:12.732Z,99.90
2019-05-03T00:56:44.364Z,100.00
2019-05-03T00:59:12.724Z,99.82
2019-05-03T01:01:42.513Z,100.00
2019-05-03T01:04:11.868Z,100.00
2019-05-03T01:06:42.337Z,100.00
2019-05-03T01:09:31.718Z,100.00
2019-05-03T01:12:01.824Z,100.00
2019-05-03T01:14:31.662Z,100.00
2019-05-03T01:17:00.157Z,100.00
2019-05-03T01:19:47.793Z,100.00
2019-05-03T01:22:16.072Z,100.00
2019-05-03T01:24:44.356Z,100.00
2019-05-03T01:27:12.606Z,100.00
2019-05-03T01:29:42.476Z,100.00
2019-05-03T01:32:11.571Z,100.00
2019-05-03T01:34:41.634Z,100.00
2019-05-03T01:37:11.923Z,100.00
2019-05-03T01:39:42.139Z,100.00
2019-05-03T01:42:11.964Z,100.00
2019-05-03T01:44:42.632Z,100.00
2019-05-03T01:50:08.947Z,100.00
2019-05-03T01:52:56.339Z,100.00
2019-05-03T01:58:13.574Z,100.00
2019-05-03T02:00:42.314Z,100.00
2019-05-03T02:06:02.385Z,100.00
2019-05-03T02:08:32.641Z,100.00
2019-05-03T02:11:02.204Z,100.00
2019-05-03T02:13:32.102Z,100.00
2019-05-03T02:16:02.296Z,100.00
2019-05-03T02:18:31.957Z,100.00
2019-05-03T02:21:01.666Z,100.00
2019-05-03T02:23:31.914Z,100.00
2019-05-03T02:26:00.131Z,100.00
2019-05-03T02:28:28.407Z,100.00
2019-05-03T02:30:56.655Z,100.00
2019-05-03T02:33:24.952Z,100.00
2019-05-03T02:35:53.584Z,100.00
2019-05-03T02:38:35.204Z,100.00
2019-05-03T02:41:03.571Z,100.00
2019-05-03T02:46:29.905Z,100.00
2019-05-03T02:49:17.295Z,100.00
2019-05-03T02:51:46.178Z,100.00
2019-05-03T02:54:15.851Z,100.00
2019-05-03T02:56:46.193Z,100.00
2019-05-03T02:59:16.088Z,100.00
2019-05-03T03:02:26.408Z,100.00
2019-05-03T03:04:56.351Z,100.00
2019-05-03T03:07:26.060Z,100.00
2019-05-03T03:10:35.757Z,100.00
2019-05-03T03:13:45.758Z,100.00
2019-05-03T03:16:15.879Z,100.00
2019-05-03T03:18:45.627Z,100.00
2019-05-03T03:21:35.828Z,100.00
2019-05-03T03:24:18.136Z,100.00
2019-05-03T03:27:20.624Z,100.00
2019-05-03T03:32:48.496Z,100.00
2019-05-03T03:35:51.553Z,100.00
2019-05-03T03:38:19.907Z,100.00
2019-05-03T03:40:48.182Z,100.00
2019-05-03T03:43:56.513Z,100.00
2019-05-03T03:46:25.293Z,100.00
2019-05-03T03:49:28.634Z,100.00
2019-05-03T03:52:30.265Z,100.00
2019-05-03T03:55:32.012Z,100.00
2019-05-03T03:58:00.289Z,100.00
2019-05-03T04:00:28.561Z,100.00
2019-05-03T04:03:36.855Z,100.00
2019-05-03T04:06:05.839Z,100.00
2019-05-03T04:08:36.021Z,100.00
2019-05-03T04:11:25.964Z,100.00
2019-05-03T04:13:55.986Z,100.00
2019-05-03T04:16:45.472Z,100.00
2019-05-03T04:19:36.163Z,100.00
2019-05-03T04:22:05.647Z,100.00
2019-05-03T04:24:46.013Z,100.00
2019-05-03T04:27:48.502Z,100.00
2019-05-03T04:30:16.885Z,100.00
2019-05-03T04:32:45.564Z,100.00
2019-05-03T04:35:16.378Z,99.72
2019-05-03T04:37:45.538Z,98.85
2019-05-03T04:40:15.927Z,98.25
2019-05-03T04:42:46.533Z,98.57
2019-05-03T04:45:16.464Z,98.47
2019-05-03T04:47:46.513Z,98.81
2019-05-03T04:50:16.583Z,98.48
2019-05-03T04:52:46.456Z,98.67
2019-05-03T04:55:16.298Z,98.46
2019-05-03T04:57:50.062Z,98.00
2019-05-03T05:00:49.444Z,97.48
2019-05-03T05:03:17.722Z,97.14
2019-05-03T05:05:45.988Z,96.38
2019-05-03T05:08:16.282Z,96.23
2019-05-03T05:10:45.512Z,95.92
2019-05-03T05:13:15.680Z,95.71
2019-05-03T05:15:46.038Z,94.21
2019-05-03T05:23:32.088Z,92.76
2019-05-03T05:28:58.413Z,91.61
2019-05-03T05:31:26.675Z,90.41
2019-05-03T05:33:54.928Z,88.54
2019-05-03T05:36:24.378Z,88.40
2019-05-03T05:38:55.122Z,87.54
2019-05-03T05:41:24.490Z,86.44
2019-05-03T05:43:54.935Z,86.98
2019-05-03T05:54:31.823Z,85.45
2019-05-03T06:00:08.156Z,83.40
2019-05-03T06:02:36.417Z,85.19
2019-05-03T06:05:45.216Z,84.51
2019-05-03T06:08:32.588Z,85.87
2019-05-03T06:14:08.905Z,82.57
2019-05-03T06:16:56.291Z,80.91
2019-05-03T06:30:45.437Z,79.77
2019-05-03T06:33:14.415Z,79.85
2019-05-03T06:35:44.543Z,80.57
2019-05-03T06:38:15.225Z,80.79
2019-05-03T06:40:44.730Z,77.66
2019-05-03T06:43:15.726Z,78.35
2019-05-03T06:45:46.636Z,77.28
2019-05-03T06:48:17.239Z,76.44
2019-05-03T06:51:20.056Z,76.62
2019-05-03T06:53:50.633Z,76.41
2019-05-03T06:56:19.328Z,72.83
2019-05-03T06:58:47.708Z,73.49
2019-05-03T07:04:45.027Z,75.12
2019-05-03T07:10:35.275Z,71.29
2019-05-03T07:13:22.900Z,71.29
2019-05-03T07:15:51.172Z,70.96
2019-05-03T07:18:19.428Z,70.64
2019-05-03T07:21:06.800Z,71.43
2019-05-03T07:23:35.183Z,70.47
2019-05-03T07:26:05.201Z,70.08
2019-05-03T07:28:45.913Z,70.22
2019-05-03T07:31:04.812Z,71.39
2019-05-03T07:36:12.299Z,70.03
2019-05-03T07:38:40.555Z,71.97
2019-05-03T07:41:08.813Z,69.86
2019-05-03T07:43:37.076Z,68.01
2019-05-03T07:46:05.687Z,66.53
2019-05-03T07:48:35.507Z,67.51
2019-05-03T07:51:05.492Z,68.26
2019-05-03T07:53:34.895Z,68.28
2019-05-03T07:59:11.785Z,64.62
2019-05-03T08:04:29.014Z,65.74
2019-05-03T08:06:57.279Z,65.72
2019-05-03T08:09:25.539Z,66.18
2019-05-03T08:11:54.719Z,64.01
2019-05-03T08:14:25.250Z,62.43
2019-05-03T08:16:54.832Z,59.29
2019-05-03T08:19:26.889Z,57.89
2019-05-03T08:21:56.487Z,59.03
2019-05-03T08:24:25.330Z,59.48
2019-05-03T08:26:55.580Z,57.92
2019-05-03T08:29:24.846Z,61.80
2019-05-03T08:32:35.294Z,59.83
2019-05-03T08:35:17.775Z,60.26
2019-05-03T08:38:05.159Z,60.13
2019-05-03T08:40:47.129Z,60.40
2019-05-03T08:43:15.676Z,61.35
2019-05-03T08:45:45.362Z,60.12
2019-05-03T08:48:15.112Z,61.31
2019-05-03T08:50:45.134Z,61.01
2019-05-03T08:53:15.350Z,61.11
2019-05-03T08:55:44.976Z,60.46
2019-05-03T08:58:15.354Z,60.47
2019-05-03T09:03:22.475Z,65.13
2019-05-03T09:05:50.763Z,64.33
2019-05-03T09:08:19.027Z,70.17
2019-05-03T09:11:06.406Z,73.61
2019-05-03T09:16:25.190Z,68.78
2019-05-03T09:18:54.935Z,70.34
2019-05-03T09:21:25.468Z,70.52
2019-05-03T09:23:55.359Z,72.23
2019-05-03T09:26:26.888Z,70.78
2019-05-03T09:28:55.466Z,71.17
2019-05-03T09:31:24.692Z,69.62
2019-05-03T09:33:54.856Z,67.93
2019-05-03T09:36:25.352Z,68.73
2019-05-03T09:38:54.934Z,68.76
2019-05-03T09:41:25.582Z,73.29
2019-05-03T09:43:55.435Z,80.65
2019-05-03T09:46:26.312Z,87.09
2019-05-03T09:48:58.503Z,90.72
2019-05-03T09:51:25.371Z,90.70
2019-05-03T09:54:14.703Z,87.00
2019-05-03T09:57:01.752Z,87.54
2019-05-03T09:59:30.120Z,87.05
2019-05-03T10:04:47.348Z,79.76
2019-05-03T10:07:15.600Z,74.74
2019-05-03T10:09:45.085Z,67.31
2019-05-03T10:12:32.958Z,69.22
2019-05-03T10:15:01.242Z,65.16
2019-05-03T10:17:48.617Z,65.22
2019-05-03T10:25:45.495Z,63.99
2019-05-03T10:28:15.303Z,65.97
2019-05-03T10:30:45.130Z,63.92
2019-05-03T10:35:59.566Z,67.05
2019-05-03T10:38:27.823Z,66.84
2019-05-03T10:40:56.083Z,67.56
2019-05-03T10:43:24.845Z,66.01
2019-05-03T10:45:55.817Z,64.24
2019-05-03T10:48:24.818Z,64.81
2019-05-03T10:50:56.273Z,64.17
2019-05-03T10:53:45.356Z,65.43
2019-05-03T10:56:32.518Z,65.85
2019-05-03T10:59:19.906Z,64.34
2019-05-03T11:02:07.296Z,65.54
2019-05-03T11:04:35.732Z,65.84
2019-05-03T11:07:05.466Z,66.04
2019-05-03T11:09:47.985Z,68.27
2019-05-03T11:14:43.039Z,80.27
2019-05-03T11:17:14.832Z,84.82
2019-05-03T11:19:42.990Z,89.12
2019-05-03T11:22:25.067Z,94.14
2019-05-03T11:24:54.675Z,95.20
2019-05-03T11:27:42.204Z,97.70
2019-05-03T11:35:57.534Z,89.14
2019-05-03T11:38:45.532Z,88.75
2019-05-03T11:41:23.253Z,84.65
2019-05-03T11:43:44.851Z,81.24
2019-05-03T11:46:13.109Z,81.56
2019-05-03T11:48:41.396Z,79.63
2019-05-03T11:51:09.658Z,81.81
2019-05-03T11:53:37.923Z,78.76
2019-05-03T11:56:06.203Z,74.45
2019-05-03T11:58:34.666Z,69.50
2019-05-03T12:03:55.431Z,65.68
2019-05-03T12:06:24.921Z,65.99
2019-05-03T12:08:55.251Z,64.52
2019-05-03T12:11:24.417Z,64.17
2019-05-03T12:17:08.670Z,63.25
2019-05-03T12:19:14.031Z,65.54
2019-05-03T12:21:33.635Z,63.92
2019-05-03T12:24:03.060Z,64.86
2019-05-03T12:26:41.464Z,65.06
2019-05-03T12:29:04.485Z,63.20
2019-05-03T12:31:39.977Z,62.32
2019-05-03T12:34:02.446Z,63.59
2019-05-03T12:36:30.732Z,63.91
2019-05-03T12:38:58.989Z,64.61
2019-05-03T12:41:27.259Z,64.57
2019-05-03T12:43:55.515Z,63.40
2019-05-03T12:46:26.049Z,62.51
2019-05-03T12:48:53.765Z,65.82
2019-05-03T12:51:22.038Z,65.66
2019-05-03T12:53:50.291Z,67.56
2019-05-03T12:56:23.330Z,65.49
2019-05-03T12:59:07.679Z,66.08
2019-05-03T13:02:15.497Z,65.87
2019-05-03T13:08:11.243Z,62.71
2019-05-03T13:10:39.528Z,62.71
2019-05-03T13:13:07.797Z,64.59
2019-05-03T13:15:36.069Z,65.67
2019-05-03T13:18:04.947Z,65.08
2019-05-03T13:20:36.034Z,67.40
2019-05-03T13:23:05.479Z,69.30
2019-05-03T13:25:35.596Z,70.67
2019-05-03T13:28:05.480Z,68.66
2019-05-03T13:30:34.623Z,68.92
2019-05-03T13:33:05.764Z,70.32
2019-05-03T13:35:35.141Z,67.04
2019-05-03T13:38:04.369Z,67.92
2019-05-03T13:40:32.642Z,68.47
2019-05-03T13:43:03.789Z,66.90
2019-05-03T13:45:30.877Z,61.24
2019-05-03T13:47:59.144Z,59.39
2019-05-03T13:50:27.404Z,58.90
2019-05-03T13:52:55.969Z,56.18
2019-05-03T13:55:25.652Z,57.88
2019-05-03T13:57:54.868Z,57.32
2019-05-03T14:00:24.661Z,59.61
2019-05-03T14:02:53.889Z,62.34
2019-05-03T14:05:22.155Z,65.01
2019-05-03T14:07:50.414Z,63.77
2019-05-03T14:10:18.671Z,63.63
2019-05-03T14:12:46.934Z,64.53
2019-05-03T14:15:55.227Z,64.37
2019-05-03T14:18:25.552Z,62.44
2019-05-03T14:21:12.650Z,62.64
2019-05-03T14:24:00.056Z,60.58
2019-05-03T14:26:28.324Z,60.56
2019-05-03T14:28:56.615Z,59.61
2019-05-03T14:31:25.305Z,60.72
2019-05-03T14:33:55.791Z,58.33
2019-05-03T14:36:25.199Z,58.46
2019-05-03T14:38:55.143Z,58.88
2019-05-03T14:41:25.458Z,56.45
2019-05-03T14:43:55.725Z,57.47
2019-05-03T14:46:32.757Z,56.15
2019-05-03T14:48:55.036Z,57.27
2019-05-03T14:51:25.201Z,59.54
2019-05-03T14:53:54.240Z,58.36
2019-05-03T14:56:42.381Z,59.07
2019-05-03T14:59:29.759Z,57.01
2019-05-03T15:02:17.146Z,54.94
2019-05-03T15:04:45.403Z,56.13
2019-05-03T15:07:15.343Z,55.46
2019-05-03T15:09:45.665Z,57.20
2019-05-03T15:12:13.612Z,56.88
2019-05-03T15:14:41.881Z,56.81
2019-05-03T15:17:10.133Z,56.97
2019-05-03T15:19:38.395Z,57.17
2019-05-03T15:22:06.660Z,57.81
2019-05-03T15:24:34.932Z,58.64
2019-05-03T15:27:04.892Z,59.28
2019-05-03T15:29:35.306Z,59.65
2019-05-03T15:32:05.019Z,60.71
2019-05-03T15:34:35.332Z,63.48
2019-05-03T15:37:05.225Z,62.13
2019-05-03T15:39:33.208Z,61.11
2019-05-03T15:42:01.480Z,61.52
2019-05-03T15:44:48.841Z,62.74
2019-05-03T15:47:36.222Z,61.58
2019-05-03T15:50:38.541Z,63.65
2019-05-03T15:53:06.809Z,57.34
2019-05-03T15:55:35.072Z,57.38
2019-05-03T15:58:04.751Z,58.31
2019-05-03T16:00:33.319Z,56.50
2019-05-03T16:03:08.072Z,56.32
2019-05-03T16:05:31.566Z,56.06
2019-05-03T16:07:59.827Z,56.16
2019-05-03T16:10:28.080Z,56.63
2019-05-03T16:12:56.364Z,58.62
2019-05-03T16:15:24.791Z,58.69
2019-05-03T16:17:54.785Z,59.21
2019-05-03T16:20:24.959Z,59.60
2019-05-03T16:22:54.439Z,60.78
2019-05-03T16:25:24.922Z,61.38
2019-05-03T16:28:12.210Z,61.41
2019-05-03T16:30:59.754Z,61.82
2019-05-03T16:33:28.426Z,63.18
2019-05-03T16:35:58.007Z,62.55
2019-05-03T16:38:26.281Z,63.51
2019-05-03T16:40:54.637Z,64.64
2019-05-03T16:43:22.882Z,64.51
2019-05-03T16:45:51.139Z,64.57
2019-05-03T16:48:19.420Z,65.44
2019-05-03T16:50:47.678Z,66.21
2019-05-03T16:55:56.756Z,66.12
2019-05-03T16:58:24.997Z,66.87
2019-05-03T17:00:55.334Z,66.34
2019-05-03T17:03:42.628Z,66.12
2019-05-03T17:09:07.214Z,66.19
2019-05-03T17:11:35.534Z,66.19
2019-05-03T17:14:04.994Z,65.41
2019-05-03T17:16:34.466Z,64.78
2019-05-03T17:19:17.355Z,66.34
2019-05-03T17:21:45.605Z,65.41
2019-05-03T17:24:15.484Z,65.83
2019-05-03T17:26:44.382Z,67.38
2019-05-03T17:29:13.847Z,70.36
2019-05-03T17:31:42.122Z,75.29
2019-05-03T17:34:10.371Z,82.55
2019-05-03T17:36:38.639Z,86.46
2019-05-03T17:42:15.150Z,92.73
2019-05-03T17:45:02.567Z,93.59
2019-05-03T17:47:30.840Z,94.79
2019-05-03T17:49:59.117Z,95.21
2019-05-03T17:52:46.505Z,93.79
2019-05-03T17:55:35.236Z,91.88
2019-05-03T17:58:24.294Z,92.33
2019-05-03T18:01:12.341Z,89.88
2019-05-03T18:04:06.698Z,89.61
2019-05-03T18:06:49.014Z,90.11
2019-05-03T18:09:36.395Z,88.67
2019-05-03T18:12:24.400Z,87.71
2019-05-03T18:14:52.678Z,87.71
2019-05-03T18:17:20.942Z,87.61
2019-05-03T18:19:49.205Z,86.11
2019-05-03T18:22:17.460Z,86.22
2019-05-03T18:24:45.737Z,85.47
2019-05-03T18:27:15.028Z,85.20
2019-05-03T18:29:44.958Z,84.62
2019-05-03T18:32:14.770Z,84.50
2019-05-03T18:34:45.363Z,83.94
2019-05-03T18:37:15.218Z,84.08
2019-05-03T18:42:44.665Z,84.54
2019-05-03T18:45:31.609Z,84.47
2019-05-03T18:47:59.853Z,84.78
2019-05-03T18:50:28.120Z,85.12
2019-05-03T18:52:56.387Z,89.54
2019-05-03T18:55:25.209Z,97.25
2019-05-03T18:57:54.805Z,100.00
2019-05-03T19:00:24.652Z,100.00
2019-05-03T19:02:54.633Z,100.00
2019-05-03T19:13:49.072Z,100.00
2019-05-03T19:16:36.495Z,100.00
2019-05-03T19:21:53.758Z,100.00
2019-05-03T19:24:22.044Z,100.00
2019-05-03T19:26:50.294Z,100.00
2019-05-03T19:29:18.569Z,100.00
2019-05-03T19:31:46.833Z,100.00
2019-05-03T19:34:15.528Z,100.00
2019-05-03T19:36:45.738Z,100.00
2019-05-03T19:39:15.171Z,100.00
2019-05-03T19:41:44.873Z,100.00
2019-05-03T19:44:15.160Z,100.00
2019-05-03T19:46:44.508Z,100.00
2019-05-03T19:49:13.547Z,100.00
2019-05-03T19:51:41.840Z,100.00
2019-05-03T19:54:10.142Z,100.00
2019-05-03T19:56:38.418Z,100.00
2019-05-03T20:04:58.428Z,100.00
2019-05-03T20:07:42.820Z,100.00
2019-05-03T20:10:11.256Z,100.00
2019-05-03T20:12:39.564Z,100.00
2019-05-03T20:15:07.920Z,100.00
2019-05-03T20:17:36.191Z,100.00
2019-05-03T20:20:44.756Z,100.00
2019-05-03T20:23:14.614Z,100.00
2019-05-03T20:25:42.978Z,100.00
2019-05-03T20:28:11.259Z,100.00
2019-05-03T20:30:39.518Z,100.00
2019-05-03T20:33:07.807Z,100.00
2019-05-03T20:35:56.269Z,100.00
2019-05-03T20:38:25.425Z,100.00
2019-05-03T20:40:57.224Z,100.00
2019-05-03T20:43:44.530Z,100.00
2019-05-03T20:46:31.993Z,100.00
2019-05-03T20:51:51.178Z,100.00
2019-05-03T20:56:58.240Z,100.00
2019-05-03T20:59:26.521Z,100.00
2019-05-03T21:01:54.814Z,100.00
2019-05-03T21:04:24.672Z,100.00
2019-05-03T21:09:32.152Z,100.00
2019-05-03T21:12:00.428Z,100.00
2019-05-03T21:14:28.703Z,100.00
2019-05-03T21:17:16.706Z,100.00
2019-05-03T21:25:32.034Z,100.00
2019-05-03T21:28:00.328Z,100.00
2019-05-03T21:30:28.610Z,100.00
2019-05-03T21:32:56.904Z,100.00
2019-05-03T21:35:38.306Z,100.00
2019-05-03T21:37:55.250Z,100.00
2019-05-03T21:40:24.452Z,100.00
2019-05-03T21:42:54.626Z,100.00
2019-05-03T21:45:42.693Z,100.00
2019-05-03T21:50:49.953Z,100.00
2019-05-03T21:53:18.246Z,100.00
2019-05-03T21:55:46.529Z,100.00
2019-05-03T21:58:16.547Z,100.00
2019-05-03T22:03:36.657Z,100.00
2019-05-03T22:06:04.971Z,100.00
2019-05-03T22:08:35.028Z,100.00
2019-05-03T22:13:32.430Z,100.00
2019-05-03T22:16:19.837Z,100.00
2019-05-03T22:18:48.133Z,100.00
2019-05-03T22:27:04.815Z,100.00
2019-05-03T22:29:35.431Z,100.00
2019-05-03T22:32:05.321Z,100.00
2019-05-03T22:34:34.888Z,100.00
2019-05-03T22:37:44.633Z,100.00
2019-05-03T22:40:25.450Z,100.00
2019-05-03T22:42:53.793Z,100.00
2019-05-03T22:45:22.114Z,100.00
2019-05-03T22:47:50.408Z,100.00
2019-05-03T22:50:18.689Z,100.00
2019-05-03T22:52:46.995Z,100.00
2019-05-03T22:55:15.424Z,100.00
2019-05-03T22:57:43.729Z,100.00
2019-05-03T23:00:12.111Z,100.00
2019-05-03T23:02:40.414Z,100.00
2019-05-03T23:05:08.746Z,100.00
2019-05-03T23:07:37.570Z,100.00
2019-05-03T23:10:47.087Z,100.00
2019-05-03T23:13:15.477Z,100.00
2019-05-03T23:15:43.768Z,100.00
2019-05-03T23:18:12.053Z,100.00
2019-05-03T23:20:59.472Z,100.00
2019-05-03T23:23:46.879Z,100.00
2019-05-03T23:26:15.170Z,100.00
2019-05-03T23:34:25.852Z,100.00
2019-05-03T23:36:54.830Z,100.00
2019-05-03T23:39:24.913Z,100.00
2019-05-03T23:41:55.744Z,100.00
2019-05-03T23:44:24.497Z,100.00
2019-05-03T23:47:14.558Z,100.00
2019-05-03T23:49:44.607Z,100.00
2019-05-03T23:54:52.426Z,100.00
2019-05-03T23:57:20.720Z,100.00
2019-05-03T23:59:49.025Z,100.00
